sensor_id;sensor_type;location;lat;lon;timestamp;pressure;altitude;pressure_sealevel;temperature;humidity
77281;BME280;66339;47.262;17.144;2023-01-28T00:00:08;100392.66;;;20.47;40.78
77281;BME280;66339;47.262;17.144;2023-01-28T00:02:38;100397.53;;;20.45;40.74
77281;BME280;66339;47.262;17.144;2023-01-28T00:05:10;100388.12;;;20.43;40.84
77281;BME280;66339;47.262;17.144;2023-01-28T00:07:41;100386.56;;;20.37;41.00
77281;BME280;66339;47.262;17.144;2023-01-28T00:10:13;100387.97;;;20.29;41.15
77281;BME280;66339;47.262;17.144;2023-01-28T00:12:43;100386.09;;;20.29;40.95
77281;BME280;66339;47.262;17.144;2023-01-28T00:15:10;100390.91;;;20.27;40.90
77281;BME280;66339;47.262;17.144;2023-01-28T00:17:41;100392.31;;;20.25;40.96
77281;BME280;66339;47.262;17.144;2023-01-28T00:20:11;100392.84;;;20.22;41.00
77281;BME280;66339;47.262;17.144;2023-01-28T00:22:38;100398.78;;;20.19;41.10
77281;BME280;66339;47.262;17.144;2023-01-28T00:25:09;100397.47;;;20.16;41.09
77281;BME280;66339;47.262;17.144;2023-01-28T00:27:39;100405.28;;;20.13;41.18
77281;BME280;66339;47.262;17.144;2023-01-28T00:30:08;100396.69;;;20.10;41.22
77281;BME280;66339;47.262;17.144;2023-01-28T00:32:38;100401.00;;;20.06;41.32
77281;BME280;66339;47.262;17.144;2023-01-28T00:35:08;100401.00;;;20.06;41.31
77281;BME280;66339;47.262;17.144;2023-01-28T00:37:39;100403.16;;;20.04;41.28
77281;BME280;66339;47.262;17.144;2023-01-28T00:40:07;100405.31;;;20.02;41.40
77281;BME280;66339;47.262;17.144;2023-01-28T00:42:37;100402.13;;;20.00;41.42
77281;BME280;66339;47.262;17.144;2023-01-28T00:45:05;100406.94;;;19.98;41.39
77281;BME280;66339;47.262;17.144;2023-01-28T00:47:35;100408.03;;;19.97;41.44
77281;BME280;66339;47.262;17.144;2023-01-28T00:50:05;100404.81;;;19.95;41.41
77281;BME280;66339;47.262;17.144;2023-01-28T00:52:34;100406.69;;;19.95;41.43
77281;BME280;66339;47.262;17.144;2023-01-28T00:55:07;100402.66;;;19.92;41.58
77281;BME280;66339;47.262;17.144;2023-01-28T00:57:34;100409.13;;;19.91;41.53
77281;BME280;66339;47.262;17.144;2023-01-28T01:00:03;100409.66;;;19.88;41.54
77281;BME280;66339;47.262;17.144;2023-01-28T01:02:31;100404.31;;;19.88;41.49
77281;BME280;66339;47.262;17.144;2023-01-28T01:05:04;100411.03;;;19.85;41.55
77281;BME280;66339;47.262;17.144;2023-01-28T01:07:34;100414.53;;;19.86;41.57
77281;BME280;66339;47.262;17.144;2023-01-28T01:10:04;100407.03;;;19.83;41.64
77281;BME280;66339;47.262;17.144;2023-01-28T01:12:37;100419.34;;;19.84;41.63
77281;BME280;66339;47.262;17.144;2023-01-28T01:15:06;100409.19;;;19.81;41.66
77281;BME280;66339;47.262;17.144;2023-01-28T01:17:37;100407.56;;;19.80;41.66
77281;BME280;66339;47.262;17.144;2023-01-28T01:20:07;100412.94;;;19.80;41.65
77281;BME280;66339;47.262;17.144;2023-01-28T01:22:38;100414.31;;;19.77;41.70
77281;BME280;66339;47.262;17.144;2023-01-28T01:25:10;100421.00;;;19.75;41.82
77281;BME280;66339;47.262;17.144;2023-01-28T01:27:41;100428.53;;;19.73;41.70
77281;BME280;66339;47.262;17.144;2023-01-28T01:30:10;100419.41;;;19.74;41.82
77281;BME280;66339;47.262;17.144;2023-01-28T01:32:38;100430.16;;;19.74;41.81
77281;BME280;66339;47.262;17.144;2023-01-28T01:35:11;100425.31;;;19.71;41.81
77281;BME280;66339;47.262;17.144;2023-01-28T01:37:45;100419.16;;;19.70;41.82
77281;BME280;66339;47.262;17.144;2023-01-28T01:40:15;100409.50;;;19.69;41.76
77281;BME280;66339;47.262;17.144;2023-01-28T01:42:45;100408.97;;;19.67;41.79
77281;BME280;66339;47.262;17.144;2023-01-28T01:45:18;100418.91;;;19.67;41.85
77281;BME280;66339;47.262;17.144;2023-01-28T01:48:08;100427.25;;;19.65;41.79
77281;BME280;66339;47.262;17.144;2023-01-28T01:50:47;100414.06;;;19.64;41.88
77281;BME280;66339;47.262;17.144;2023-01-28T01:53:20;100423.22;;;19.62;41.89
77281;BME280;66339;47.262;17.144;2023-01-28T01:55:53;100418.66;;;19.63;41.92
77281;BME280;66339;47.262;17.144;2023-01-28T01:58:24;100413.78;;;19.60;41.83
77281;BME280;66339;47.262;17.144;2023-01-28T02:00:56;100419.44;;;19.58;42.03
77281;BME280;66339;47.262;17.144;2023-01-28T02:03:32;100424.81;;;19.58;41.84
77281;BME280;66339;47.262;17.144;2023-01-28T02:06:02;100427.50;;;19.58;41.89
77281;BME280;66339;47.262;17.144;2023-01-28T02:08:30;100420.53;;;19.57;41.93
77281;BME280;66339;47.262;17.144;2023-01-28T02:11:05;100418.91;;;19.56;41.87
77281;BME280;66339;47.262;17.144;2023-01-28T02:13:46;100426.44;;;19.54;41.92
77281;BME280;66339;47.262;17.144;2023-01-28T02:16:14;100419.47;;;19.53;42.02
77281;BME280;66339;47.262;17.144;2023-01-28T02:18:45;100424.84;;;19.53;42.06
77281;BME280;66339;47.262;17.144;2023-01-28T02:21:53;100416.25;;;19.51;41.99
77281;BME280;66339;47.262;17.144;2023-01-28T02:30:02;100442.00;;;19.47;42.13
77281;BME280;66339;47.262;17.144;2023-01-28T02:35:17;100442.00;;;19.47;42.05
77281;BME280;66339;47.262;17.144;2023-01-28T02:37:56;100432.63;;;19.45;42.06
77281;BME280;66339;47.262;17.144;2023-01-28T02:40:29;100434.50;;;19.44;42.05
77281;BME280;66339;47.262;17.144;2023-01-28T02:42:57;100434.78;;;19.43;42.03
77281;BME280;66339;47.262;17.144;2023-01-28T02:45:33;100439.34;;;19.42;42.00
77281;BME280;66339;47.262;17.144;2023-01-28T02:48:01;100441.47;;;19.40;42.01
77281;BME280;66339;47.262;17.144;2023-01-28T02:50:40;100434.22;;;19.41;42.08
77281;BME280;66339;47.262;17.144;2023-01-28T02:53:18;100443.66;;;19.38;42.06
77281;BME280;66339;47.262;17.144;2023-01-28T02:59:02;100449.25;;;19.36;42.13
77281;BME280;66339;47.262;17.144;2023-01-28T03:01:41;100443.09;;;19.36;42.04
77281;BME280;66339;47.262;17.144;2023-01-28T03:04:21;100441.50;;;19.35;42.12
77281;BME280;66339;47.262;17.144;2023-01-28T03:06:54;100446.31;;;19.33;42.11
77281;BME280;66339;47.262;17.144;2023-01-28T03:09:23;100444.72;;;19.32;42.08
77281;BME280;66339;47.262;17.144;2023-01-28T03:14:24;100433.47;;;19.30;42.19
77281;BME280;66339;47.262;17.144;2023-01-28T03:16:57;100435.31;;;19.29;42.20
77281;BME280;66339;47.262;17.144;2023-01-28T03:19:29;100436.41;;;19.28;42.10
77281;BME280;66339;47.262;17.144;2023-01-28T03:22:00;100439.38;;;19.27;42.15
77281;BME280;66339;47.262;17.144;2023-01-28T03:24:41;100436.94;;;19.25;42.12
77281;BME280;66339;47.262;17.144;2023-01-28T03:27:17;100431.88;;;19.24;42.21
77281;BME280;66339;47.262;17.144;2023-01-28T03:29:47;100437.22;;;19.24;42.17
77281;BME280;66339;47.262;17.144;2023-01-28T03:32:23;100447.94;;;19.24;42.15
77281;BME280;66339;47.262;17.144;2023-01-28T03:35:13;100444.75;;;19.22;42.17
77281;BME280;66339;47.262;17.144;2023-01-28T03:38:02;100451.16;;;19.21;42.21
77281;BME280;66339;47.262;17.144;2023-01-28T03:40:33;100446.87;;;19.20;42.20
77281;BME280;66339;47.262;17.144;2023-01-28T03:43:00;100446.87;;;19.20;42.13
77281;BME280;66339;47.262;17.144;2023-01-28T03:45:27;100458.16;;;19.17;42.14
77281;BME280;66339;47.262;17.144;2023-01-28T03:47:54;100463.50;;;19.17;42.24
77281;BME280;66339;47.262;17.144;2023-01-28T03:50:24;100463.50;;;19.17;42.12
77281;BME280;66339;47.262;17.144;2023-01-28T03:52:51;100461.34;;;19.13;42.20
77281;BME280;66339;47.262;17.144;2023-01-28T03:55:22;100459.50;;;19.14;42.25
77281;BME280;66339;47.262;17.144;2023-01-28T03:57:52;100464.03;;;19.13;42.20
77281;BME280;66339;47.262;17.144;2023-01-28T04:00:20;100466.19;;;19.11;42.15
77281;BME280;66339;47.262;17.144;2023-01-28T04:02:47;100466.19;;;19.11;42.25
77281;BME280;66339;47.262;17.144;2023-01-28T04:05:38;100463.81;;;19.10;42.20
77281;BME280;66339;47.262;17.144;2023-01-28T04:08:07;100465.94;;;19.08;42.23
77281;BME280;66339;47.262;17.144;2023-01-28T04:10:39;100464.06;;;19.08;42.20
77281;BME280;66339;47.262;17.144;2023-01-28T04:13:07;100460.56;;;19.08;42.19
77281;BME280;66339;47.262;17.144;2023-01-28T04:15:34;100457.34;;;19.06;42.29
77281;BME280;66339;47.262;17.144;2023-01-28T04:18:03;100466.47;;;19.05;42.23
77281;BME280;66339;47.262;17.144;2023-01-28T04:20:31;100477.19;;;19.05;42.22
77281;BME280;66339;47.262;17.144;2023-01-28T04:23:01;100476.38;;;19.04;42.20
77281;BME280;66339;47.262;17.144;2023-01-28T04:25:28;100480.16;;;19.03;42.26
77281;BME280;66339;47.262;17.144;2023-01-28T04:27:59;100474.78;;;19.03;42.16
77281;BME280;66339;47.262;17.144;2023-01-28T04:30:26;100486.03;;;19.00;42.23
77281;BME280;66339;47.262;17.144;2023-01-28T04:32:57;100484.97;;;19.01;42.18
77281;BME280;66339;47.262;17.144;2023-01-28T04:35:24;100485.25;;;19.00;42.17
77281;BME280;66339;47.262;17.144;2023-01-28T04:37:51;100481.75;;;18.99;42.21
77281;BME280;66339;47.262;17.144;2023-01-28T04:40:21;100480.16;;;18.98;42.23
77281;BME280;66339;47.262;17.144;2023-01-28T04:42:58;100488.19;;;18.98;42.23
77281;BME280;66339;47.262;17.144;2023-01-28T04:45:28;100490.31;;;18.96;42.26
77281;BME280;66339;47.262;17.144;2023-01-28T04:47:55;100491.13;;;18.97;42.28
77281;BME280;66339;47.262;17.144;2023-01-28T04:50:22;100494.09;;;18.95;42.26
77281;BME280;66339;47.262;17.144;2023-01-28T04:52:49;100487.09;;;18.94;42.23
77281;BME280;66339;47.262;17.144;2023-01-28T04:55:17;100487.38;;;18.93;42.29
77281;BME280;66339;47.262;17.144;2023-01-28T04:57:48;100484.69;;;18.93;42.29
77281;BME280;66339;47.262;17.144;2023-01-28T05:00:17;100490.34;;;18.91;42.26
77281;BME280;66339;47.262;17.144;2023-01-28T05:02:49;100495.69;;;18.91;42.36
77281;BME280;66339;47.262;17.144;2023-01-28T05:05:17;100487.66;;;18.91;42.27
77281;BME280;66339;47.262;17.144;2023-01-28T05:07:52;100495.16;;;18.89;42.28
77281;BME280;66339;47.262;17.144;2023-01-28T05:10:24;100496.22;;;18.88;42.25
77281;BME280;66339;47.262;17.144;2023-01-28T05:12:54;100496.22;;;18.88;42.29
77281;BME280;66339;47.262;17.144;2023-01-28T05:15:21;100491.94;;;18.87;42.29
77281;BME280;66339;47.262;17.144;2023-01-28T05:17:52;100498.91;;;18.88;42.32
77281;BME280;66339;47.262;17.144;2023-01-28T05:20:19;100491.13;;;18.86;42.30
77281;BME280;66339;47.262;17.144;2023-01-28T05:22:46;100495.66;;;18.86;42.37
77281;BME280;66339;47.262;17.144;2023-01-28T05:25:16;100495.66;;;18.86;42.39
77281;BME280;66339;47.262;17.144;2023-01-28T05:27:47;100501.03;;;18.86;42.36
77281;BME280;66339;47.262;17.144;2023-01-28T05:30:15;100502.66;;;18.87;42.40
77281;BME280;66339;47.262;17.144;2023-01-28T05:32:44;100499.97;;;18.87;42.38
77281;BME280;66339;47.262;17.144;2023-01-28T05:35:11;100494.87;;;18.85;42.39
77281;BME280;66339;47.262;17.144;2023-01-28T05:37:39;100501.03;;;18.86;42.38
77281;BME280;66339;47.262;17.144;2023-01-28T05:40:06;100499.44;;;18.85;42.48
77281;BME280;66339;47.262;17.144;2023-01-28T05:42:33;100502.66;;;18.87;42.55
77281;BME280;66339;47.262;17.144;2023-01-28T05:45:04;100499.44;;;18.85;42.52
77281;BME280;66339;47.262;17.144;2023-01-28T05:47:35;100503.72;;;18.86;42.61
77281;BME280;66339;47.262;17.144;2023-01-28T05:50:02;100510.69;;;18.87;42.61
77281;BME280;66339;47.262;17.144;2023-01-28T05:52:32;100508.81;;;18.87;42.71
77281;BME280;66339;47.262;17.144;2023-01-28T05:55:01;100509.62;;;18.88;42.70
77281;BME280;66339;47.262;17.144;2023-01-28T05:57:29;100510.44;;;18.88;42.66
77281;BME280;66339;47.262;17.144;2023-01-28T05:59:58;100505.06;;;18.88;42.80
77281;BME280;66339;47.262;17.144;2023-01-28T06:02:24;100509.34;;;18.89;42.79
77281;BME280;66339;47.262;17.144;2023-01-28T06:04:51;100515.50;;;18.90;42.82
77281;BME280;66339;47.262;17.144;2023-01-28T06:07:21;100507.47;;;18.90;42.83
77281;BME280;66339;47.262;17.144;2023-01-28T06:09:47;100515.25;;;18.92;42.89
77281;BME280;66339;47.262;17.144;2023-01-28T06:12:14;100507.75;;;18.94;42.95
77281;BME280;66339;47.262;17.144;2023-01-28T06:14:52;100512.84;;;18.95;43.03
77281;BME280;66339;47.262;17.144;2023-01-28T06:17:19;100514.44;;;18.96;43.23
77281;BME280;66339;47.262;17.144;2023-01-28T06:19:49;100520.38;;;18.98;42.68
77281;BME280;66339;47.262;17.144;2023-01-28T06:22:15;100524.66;;;18.99;41.76
77281;BME280;66339;47.262;17.144;2023-01-28T06:24:42;100519.28;;;18.99;41.17
77281;BME280;66339;47.262;17.144;2023-01-28T06:27:09;100527.84;;;19.01;40.74
77281;BME280;66339;47.262;17.144;2023-01-28T06:29:43;100531.59;;;19.00;40.31
77281;BME280;66339;47.262;17.144;2023-01-28T06:32:12;100538.06;;;18.99;40.10
77281;BME280;66339;47.262;17.144;2023-01-28T06:34:42;100531.09;;;18.98;39.88
77281;BME280;66339;47.262;17.144;2023-01-28T06:37:13;100529.22;;;18.99;39.66
77281;BME280;66339;47.262;17.144;2023-01-28T06:39:40;100534.81;;;18.97;39.47
77281;BME280;66339;47.262;17.144;2023-01-28T06:42:06;100541.81;;;18.98;39.41
77281;BME280;66339;47.262;17.144;2023-01-28T06:44:53;100540.19;;;18.97;39.26
77281;BME280;66339;47.262;17.144;2023-01-28T06:47:20;100537.50;;;18.97;39.58
77281;BME280;66339;47.262;17.144;2023-01-28T06:50:06;100545.00;;;19.00;40.20
77281;BME280;66339;47.262;17.144;2023-01-28T06:52:33;100542.06;;;19.02;40.67
77281;BME280;66339;47.262;17.144;2023-01-28T06:55:07;100539.94;;;19.04;40.99
77281;BME280;66339;47.262;17.144;2023-01-28T06:57:37;100546.09;;;19.04;41.33
77281;BME280;66339;47.262;17.144;2023-01-28T07:00:06;100553.84;;;19.06;41.25
77281;BME280;66339;47.262;17.144;2023-01-28T07:02:33;100550.91;;;19.07;41.27
77281;BME280;66339;47.262;17.144;2023-01-28T07:05:00;100550.66;;;19.04;41.15
77281;BME280;66339;47.262;17.144;2023-01-28T07:07:31;100550.66;;;19.04;42.00
77281;BME280;66339;47.262;17.144;2023-01-28T07:09:58;100554.66;;;19.01;42.11
77281;BME280;66339;47.262;17.144;2023-01-28T07:12:27;100549.84;;;19.03;42.14
77281;BME280;66339;47.262;17.144;2023-01-28T07:14:53;100562.44;;;19.03;42.19
77281;BME280;66339;47.262;17.144;2023-01-28T07:17:23;100560.56;;;19.03;41.96
77281;BME280;66339;47.262;17.144;2023-01-28T07:19:53;100559.50;;;19.04;41.91
77281;BME280;66339;47.262;17.144;2023-01-28T07:22:19;100566.47;;;19.05;41.99
77281;BME280;66339;47.262;17.144;2023-01-28T07:24:49;100571.81;;;19.05;42.21
77281;BME280;66339;47.262;17.144;2023-01-28T07:27:16;100575.31;;;19.06;42.45
77281;BME280;66339;47.262;17.144;2023-01-28T07:29:42;100577.72;;;19.07;42.85
77281;BME280;66339;47.262;17.144;2023-01-28T07:32:09;100578.25;;;19.09;42.97
77281;BME280;66339;47.262;17.144;2023-01-28T07:34:39;100573.44;;;19.11;43.35
77281;BME280;66339;47.262;17.144;2023-01-28T07:37:06;100571.28;;;19.13;44.12
77281;BME280;66339;47.262;17.144;2023-01-28T07:39:33;100572.91;;;19.15;44.53
77281;BME280;66339;47.262;17.144;2023-01-28T07:42:00;100570.25;;;19.15;44.43
77281;BME280;66339;47.262;17.144;2023-01-28T07:44:27;100578.81;;;19.17;44.80
77281;BME280;66339;47.262;17.144;2023-01-28T07:46:53;100583.91;;;19.18;44.92
77281;BME280;66339;47.262;17.144;2023-01-28T07:49:24;100584.72;;;19.19;45.13
77281;BME280;66339;47.262;17.144;2023-01-28T07:51:50;100586.88;;;19.22;45.37
77281;BME280;66339;47.262;17.144;2023-01-28T07:54:17;100584.44;;;19.25;45.84
77281;BME280;66339;47.262;17.144;2023-01-28T07:56:44;100584.19;;;19.27;45.92
77281;BME280;66339;47.262;17.144;2023-01-28T07:59:11;100591.94;;;19.28;46.06
77281;BME280;66339;47.262;17.144;2023-01-28T08:01:38;100591.94;;;19.28;45.73
77281;BME280;66339;47.262;17.144;2023-01-28T08:04:10;100594.62;;;19.28;45.96
77281;BME280;66339;47.262;17.144;2023-01-28T08:06:37;100602.44;;;19.30;46.02
77281;BME280;66339;47.262;17.144;2023-01-28T08:09:04;100601.59;;;19.29;45.85
77281;BME280;66339;47.262;17.144;2023-01-28T08:11:37;100602.44;;;19.30;45.62
77281;BME280;66339;47.262;17.144;2023-01-28T08:14:04;100595.44;;;19.29;45.68
77281;BME280;66339;47.262;17.144;2023-01-28T08:16:32;100598.12;;;19.29;45.57
77281;BME280;66339;47.262;17.144;2023-01-28T08:18:59;100606.16;;;19.24;42.35
77281;BME280;66339;47.262;17.144;2023-01-28T08:21:25;100600.78;;;19.03;38.29
77281;BME280;66339;47.262;17.144;2023-01-28T08:23:52;100603.44;;;18.83;38.45
77281;BME280;66339;47.262;17.144;2023-01-28T08:26:19;100607.91;;;18.67;36.89
77281;BME280;66339;47.262;17.144;2023-01-28T08:28:46;100604.31;;;18.46;37.62
77281;BME280;66339;47.262;17.144;2023-01-28T08:31:18;100602.91;;;18.28;36.66
77281;BME280;66339;47.262;17.144;2023-01-28T08:33:45;100602.06;;;18.18;36.78
77281;BME280;66339;47.262;17.144;2023-01-28T08:36:15;100614.38;;;18.19;38.51
77281;BME280;66339;47.262;17.144;2023-01-28T08:38:43;100596.75;;;18.28;40.54
77281;BME280;66339;47.262;17.144;2023-01-28T08:41:10;100606.97;;;18.36;41.57
77281;BME280;66339;47.262;17.144;2023-01-28T08:43:37;100613.44;;;18.45;41.42
77281;BME280;66339;47.262;17.144;2023-01-28T08:46:05;100610.81;;;18.55;41.90
77281;BME280;66339;47.262;17.144;2023-01-28T08:48:32;100611.62;;;18.61;42.11
77281;BME280;66339;47.262;17.144;2023-01-28T08:50:59;100613.00;;;18.69;41.92
77281;BME280;66339;47.262;17.144;2023-01-28T08:53:26;100620.25;;;18.73;42.00
77281;BME280;66339;47.262;17.144;2023-01-28T08:55:53;100616.78;;;18.78;42.07
77281;BME280;66339;47.262;17.144;2023-01-28T08:58:20;100619.50;;;18.83;42.43
77281;BME280;66339;47.262;17.144;2023-01-28T09:00:49;100623.00;;;18.88;43.77
77281;BME280;66339;47.262;17.144;2023-01-28T09:03:17;100626.47;;;18.94;44.78
77281;BME280;66339;47.262;17.144;2023-01-28T09:05:44;100627.59;;;18.98;44.54
77281;BME280;66339;47.262;17.144;2023-01-28T09:08:13;100627.31;;;19.05;44.36
77281;BME280;66339;47.262;17.144;2023-01-28T09:10:44;100638.88;;;19.10;44.31
77281;BME280;66339;47.262;17.144;2023-01-28T09:13:13;100642.62;;;19.15;44.19
77281;BME280;66339;47.262;17.144;2023-01-28T09:15:41;100639.94;;;19.20;44.15
77281;BME280;66339;47.262;17.144;2023-01-28T09:18:12;100651.75;;;19.24;44.01
77281;BME280;66339;47.262;17.144;2023-01-28T09:20:39;100640.75;;;19.25;44.10
77281;BME280;66339;47.262;17.144;2023-01-28T09:23:09;100645.34;;;19.30;44.19
77281;BME280;66339;47.262;17.144;2023-01-28T09:25:37;100654.72;;;19.32;45.01
77281;BME280;66339;47.262;17.144;2023-01-28T09:28:04;100653.38;;;19.35;45.01
77281;BME280;66339;47.262;17.144;2023-01-28T09:30:59;100649.09;;;19.39;44.97
77281;BME280;66339;47.262;17.144;2023-01-28T09:33:29;100650.47;;;19.42;44.86
77281;BME280;66339;47.262;17.144;2023-01-28T09:35:59;100649.09;;;19.44;44.35
77281;BME280;66339;47.262;17.144;2023-01-28T09:47:02;100645.88;;;19.47;44.13
77281;BME280;66339;47.262;17.144;2023-01-28T09:49:34;100649.66;;;19.46;44.03
77281;BME280;66339;47.262;17.144;2023-01-28T09:52:02;100642.12;;;19.48;43.99
77281;BME280;66339;47.262;17.144;2023-01-28T09:54:51;100638.38;;;19.49;43.81
77281;BME280;66339;47.262;17.144;2023-01-28T09:57:28;100639.19;;;19.50;43.74
77281;BME280;66339;47.262;17.144;2023-01-28T10:00:00;100632.47;;;19.52;43.67
77281;BME280;66339;47.262;17.144;2023-01-28T10:11:56;100627.63;;;19.59;43.43
77281;BME280;66339;47.262;17.144;2023-01-28T10:17:45;100630.06;;;19.61;43.23
77281;BME280;66339;47.262;17.144;2023-01-28T10:20:32;100628.22;;;19.61;43.25
77281;BME280;66339;47.262;17.144;2023-01-28T10:25:49;100635.72;;;19.65;42.57
77281;BME280;66339;47.262;17.144;2023-01-28T10:28:23;100634.91;;;19.64;42.60
77281;BME280;66339;47.262;17.144;2023-01-28T10:30:55;100638.94;;;19.67;42.56
77281;BME280;66339;47.262;17.144;2023-01-28T10:33:36;100646.72;;;19.68;42.54
77281;BME280;66339;47.262;17.144;2023-01-28T10:36:03;100644.84;;;19.69;42.50
77281;BME280;66339;47.262;17.144;2023-01-28T10:38:35;100642.97;;;19.69;42.46
77281;BME280;66339;47.262;17.144;2023-01-28T10:41:03;100639.22;;;19.70;42.47
77281;BME280;66339;47.262;17.144;2023-01-28T10:43:34;100643.78;;;19.70;42.52
77281;BME280;66339;47.262;17.144;2023-01-28T10:46:11;100644.84;;;19.69;42.67
77281;BME280;66339;47.262;17.144;2023-01-28T10:49:01;100642.97;;;19.69;42.62
77281;BME280;66339;47.262;17.144;2023-01-28T10:51:38;100645.91;;;19.68;42.70
77281;BME280;66339;47.262;17.144;2023-01-28T10:54:23;100643.22;;;19.68;42.81
77281;BME280;66339;47.262;17.144;2023-01-28T10:57:11;100644.31;;;19.67;43.06
77281;BME280;66339;47.262;17.144;2023-01-28T10:59:41;100641.34;;;19.68;43.09
77281;BME280;66339;47.262;17.144;2023-01-28T11:02:25;100639.47;;;19.69;43.25
77281;BME280;66339;47.262;17.144;2023-01-28T11:07:37;100641.09;;;19.75;43.42
77281;BME280;66339;47.262;17.144;2023-01-28T11:13:00;100649.12;;;19.80;43.43
77281;BME280;66339;47.262;17.144;2023-01-28T11:15:33;100642.44;;;19.82;43.24
77281;BME280;66339;47.262;17.144;2023-01-28T11:18:07;100641.09;;;19.85;43.34
77281;BME280;66339;47.262;17.144;2023-01-28T11:20:50;100638.94;;;19.87;43.30
77281;BME280;66339;47.262;17.144;2023-01-28T11:23:25;100643.22;;;19.88;43.48
77281;BME280;66339;47.262;17.144;2023-01-28T11:26:05;100642.16;;;19.89;43.55
77281;BME280;66339;47.262;17.144;2023-01-28T11:28:34;100647.53;;;19.89;43.33
77281;BME280;66339;47.262;17.144;2023-01-28T11:31:04;100641.59;;;19.92;43.41
77281;BME280;66339;47.262;17.144;2023-01-28T11:33:36;100644.28;;;19.92;43.74
77281;BME280;66339;47.262;17.144;2023-01-28T11:36:20;100641.59;;;19.92;43.97
77281;BME280;66339;47.262;17.144;2023-01-28T11:38:55;100637.84;;;19.93;44.16
77281;BME280;66339;47.262;17.144;2023-01-28T11:41:37;100635.44;;;19.97;43.93
77281;BME280;66339;47.262;17.144;2023-01-28T11:44:27;100639.47;;;19.94;43.99
77281;BME280;66339;47.262;17.144;2023-01-28T11:47:10;100637.56;;;19.95;43.97
77281;BME280;66339;47.262;17.144;2023-01-28T11:52:17;100635.69;;;19.95;44.30
77281;BME280;66339;47.262;17.144;2023-01-28T11:58:20;100631.91;;;19.96;44.36
77281;BME280;66339;47.262;17.144;2023-01-28T12:01:09;100637.28;;;19.96;44.28
77281;BME280;66339;47.262;17.144;2023-01-28T12:09:48;100629.78;;;19.98;44.41
77281;BME280;66339;47.262;17.144;2023-01-28T12:12:42;100628.19;;;19.97;44.18
77281;BME280;66339;47.262;17.144;2023-01-28T12:20:55;100628.44;;;20.01;44.44
77281;BME280;66339;47.262;17.144;2023-01-28T12:23:32;100627.09;;;20.03;44.60
77281;BME280;66339;47.262;17.144;2023-01-28T12:28:55;100630.31;;;20.05;44.68
77281;BME280;66339;47.262;17.144;2023-01-28T12:31:49;100632.72;;;20.07;44.73
77281;BME280;66339;47.262;17.144;2023-01-28T12:42:29;100634.88;;;20.10;46.24
77281;BME280;66339;47.262;17.144;2023-01-28T12:45:39;100642.12;;;20.09;46.06
77281;BME280;66339;47.262;17.144;2023-01-28T12:48:19;100643.72;;;20.10;45.88
77281;BME280;66339;47.262;17.144;2023-01-28T12:51:14;100645.88;;;20.08;45.60
77281;BME280;66339;47.262;17.144;2023-01-28T12:56:20;100646.16;;;20.07;45.48
77281;BME280;66339;47.262;17.144;2023-01-28T13:01:28;100649.38;;;20.04;45.47
77281;BME280;66339;47.262;17.144;2023-01-28T13:04:21;100650.19;;;20.04;45.52
77281;BME280;66339;47.262;17.144;2023-01-28T13:07:01;100646.16;;;20.02;45.50
77281;BME280;66339;47.262;17.144;2023-01-28T13:09:36;100642.69;;;20.01;45.33
77281;BME280;66339;47.262;17.144;2023-01-28T13:12:10;100650.72;;;20.01;45.21
77281;BME280;66339;47.262;17.144;2023-01-28T13:14:40;100651.53;;;20.02;45.09
77281;BME280;66339;47.262;17.144;2023-01-28T13:17:28;100661.19;;;20.03;44.99
77281;BME280;66339;47.262;17.144;2023-01-28T13:20:15;100655.31;;;20.01;45.16
77281;BME280;66339;47.262;17.144;2023-01-28T13:22:45;100658.78;;;20.01;45.27
77281;BME280;66339;47.262;17.144;2023-01-28T13:25:24;100657.19;;;20.00;45.27
77281;BME280;66339;47.262;17.144;2023-01-28T13:28:00;100660.66;;;20.01;45.21
77281;BME280;66339;47.262;17.144;2023-01-28T13:30:33;100659.03;;;20.00;45.05
77281;BME280;66339;47.262;17.144;2023-01-28T13:33:24;100655.31;;;20.01;45.09
77281;BME280;66339;47.262;17.144;2023-01-28T13:35:53;100654.50;;;20.00;45.06
77281;BME280;66339;47.262;17.144;2023-01-28T13:38:26;100653.66;;;20.00;45.00
77281;BME280;66339;47.262;17.144;2023-01-28T13:40:59;100667.37;;;19.98;45.09
77281;BME280;66339;47.262;17.144;2023-01-28T13:46:13;100674.34;;;19.99;45.00
77281;BME280;66339;47.262;17.144;2023-01-28T13:48:54;100667.37;;;19.98;44.94
77281;BME280;66339;47.262;17.144;2023-01-28T13:56:34;100677.31;;;19.98;44.96
77281;BME280;66339;47.262;17.144;2023-01-28T14:05:30;100688.59;;;19.95;44.98
77281;BME280;66339;47.262;17.144;2023-01-28T14:16:57;100694.22;;;19.93;44.69
77281;BME280;66339;47.262;17.144;2023-01-28T14:19:34;100687.22;;;19.92;44.62
77281;BME280;66339;47.262;17.144;2023-01-28T14:22:09;100698.53;;;19.89;44.71
77281;BME280;66339;47.262;17.144;2023-01-28T14:24:41;100702.81;;;19.90;44.62
77281;BME280;66339;47.262;17.144;2023-01-28T14:27:34;100707.63;;;19.88;44.66
77281;BME280;66339;47.262;17.144;2023-01-28T14:30:19;100710.31;;;19.88;44.63
77281;BME280;66339;47.262;17.144;2023-01-28T14:32:50;100717.06;;;19.85;44.87
77281;BME280;66339;47.262;17.144;2023-01-28T14:35:46;100714.09;;;19.87;45.03
77281;BME280;66339;47.262;17.144;2023-01-28T14:38:18;100720.53;;;19.86;44.96
77281;BME280;66339;47.262;17.144;2023-01-28T14:40:52;100719.47;;;19.87;44.96
77281;BME280;66339;47.262;17.144;2023-01-28T14:43:22;100724.03;;;19.86;44.79
77281;BME280;66339;47.262;17.144;2023-01-28T14:45:55;100731.81;;;19.88;44.72